createdAt,value
2022-10-11T00:01:47.579Z,9.38
2022-10-11T00:07:12.107Z,10.58
2022-10-11T00:12:39.392Z,13.41
2022-10-11T00:18:06.527Z,10.38
2022-10-11T00:23:36.167Z,8.62
2022-10-11T00:29:02.946Z,10.93
2022-10-11T00:34:30.519Z,12.20
2022-10-11T00:39:59.266Z,8.98
2022-10-11T00:45:28.090Z,11.35
2022-10-11T00:51:13.164Z,10.19
2022-10-11T00:56:42.718Z,8.76
2022-10-11T01:02:08.964Z,9.54
2022-10-11T01:07:35.595Z,9.48
2022-10-11T01:13:02.681Z,10.15
2022-10-11T01:18:28.468Z,14.09
2022-10-11T01:23:52.790Z,10.70
2022-10-11T01:29:50.159Z,10.22
2022-10-11T01:35:15.023Z,9.28
2022-10-11T01:40:42.401Z,8.50
2022-10-11T01:46:08.113Z,10.32
2022-10-11T01:51:35.343Z,12.52
2022-10-11T01:57:00.226Z,14.85
2022-10-11T02:02:51.516Z,14.26
2022-10-11T02:08:23.637Z,16.67
2022-10-11T02:13:48.742Z,13.00
2022-10-11T02:19:17.671Z,14.50
2022-10-11T02:24:41.741Z,14.99
2022-10-11T02:30:08.630Z,14.95
2022-10-11T02:35:36.042Z,16.51
2022-10-11T02:41:03.260Z,15.62
2022-10-11T02:46:26.691Z,15.19
2022-10-11T02:51:53.445Z,14.20
2022-10-11T02:57:21.504Z,8.25
2022-10-11T03:02:48.793Z,9.80
2022-10-11T03:08:14.973Z,7.43
2022-10-11T03:13:41.828Z,5.17
2022-10-11T03:19:09.528Z,6.17
2022-10-11T03:24:35.515Z,4.57
2022-10-11T03:30:04.266Z,6.49
2022-10-11T03:35:28.164Z,5.79
2022-10-11T03:40:56.797Z,2.84
2022-10-11T03:46:23.187Z,8.24
2022-10-11T03:51:51.781Z,3.95
2022-10-11T03:57:25.071Z,4.10
2022-10-11T04:02:53.666Z,2.81
2022-10-11T04:08:18.048Z,2.76
2022-10-11T04:13:40.064Z,3.04
2022-10-11T04:19:06.042Z,3.12
2022-10-11T04:24:32.525Z,5.54
2022-10-11T04:29:59.078Z,4.05
2022-10-11T04:35:24.396Z,2.55
2022-10-11T04:40:53.022Z,3.51
2022-10-11T04:46:20.182Z,5.69
2022-10-11T04:51:46.401Z,4.82
2022-10-11T04:57:14.948Z,5.02
2022-10-11T05:02:43.225Z,3.05
2022-10-11T05:08:12.126Z,3.52
2022-10-11T05:13:37.750Z,4.68
2022-10-11T05:19:02.342Z,4.70
2022-10-11T05:24:27.907Z,6.37
2022-10-11T05:29:55.664Z,6.17
2022-10-11T05:35:22.763Z,3.15
2022-10-11T05:40:48.901Z,1.83
2022-10-11T05:46:10.692Z,5.55
2022-10-11T05:51:37.684Z,3.46
2022-10-11T05:57:01.799Z,5.36
2022-10-11T06:02:27.860Z,5.15
2022-10-11T06:07:54.900Z,4.32
2022-10-11T06:13:21.848Z,6.12
2022-10-11T06:18:48.475Z,4.07
2022-10-11T06:24:16.337Z,5.78
2022-10-11T06:29:44.102Z,5.25
2022-10-11T06:35:32.699Z,6.84
2022-10-11T06:41:14.072Z,8.20
2022-10-11T06:46:42.237Z,7.73
2022-10-11T06:52:17.206Z,15.86
2022-10-11T06:57:41.790Z,8.93
2022-10-11T07:03:05.208Z,5.86
2022-10-11T07:08:32.762Z,7.14
2022-10-11T07:13:58.719Z,6.84
2022-10-11T07:19:22.367Z,5.69
2022-10-11T07:24:47.395Z,6.62
2022-10-11T07:30:12.492Z,10.58
2022-10-11T07:35:39.868Z,8.87
2022-10-11T07:41:07.531Z,7.52
2022-10-11T07:46:34.560Z,7.66
2022-10-11T07:51:58.393Z,5.68
2022-10-11T07:57:23.393Z,5.26
2022-10-11T08:02:50.001Z,5.17
2022-10-11T08:08:20.126Z,5.88
2022-10-11T08:13:47.282Z,4.25
2022-10-11T08:19:14.005Z,3.48
2022-10-11T08:24:40.880Z,6.43
2022-10-11T08:30:11.416Z,4.19
2022-10-11T08:35:39.190Z,5.34
2022-10-11T08:41:00.623Z,5.36
2022-10-11T08:46:35.714Z,4.17
2022-10-11T08:52:02.413Z,5.35
2022-10-11T08:57:27.929Z,3.32
2022-10-11T09:03:07.990Z,3.82
2022-10-11T09:08:18.542Z,4.06
2022-10-11T09:13:44.671Z,5.73
2022-10-11T09:19:15.679Z,5.52
2022-10-11T09:24:46.759Z,7.48
2022-10-11T09:30:18.431Z,5.47
2022-10-11T09:35:44.957Z,5.05
2022-10-11T09:41:06.990Z,4.13
2022-10-11T09:46:29.984Z,3.78
2022-10-11T09:51:56.529Z,8.23
2022-10-11T09:57:18.727Z,4.14
2022-10-11T10:02:44.714Z,6.25
2022-10-11T10:08:08.265Z,5.02
2022-10-11T10:13:46.481Z,7.36
2022-10-11T10:19:14.382Z,3.32
2022-10-11T10:24:41.408Z,3.35
2022-10-11T10:30:08.389Z,3.64
2022-10-11T10:35:33.688Z,3.99
2022-10-11T10:40:59.297Z,5.51
2022-10-11T10:46:26.898Z,3.48
2022-10-11T10:52:08.556Z,3.70
2022-10-11T10:57:45.010Z,3.19
2022-10-11T11:03:12.314Z,3.85
2022-10-11T11:08:39.733Z,3.78
2022-10-11T11:14:12.868Z,3.01
2022-10-11T11:19:47.907Z,3.29
2022-10-11T11:25:13.718Z,3.27
2022-10-11T11:30:46.034Z,4.09
2022-10-11T11:36:12.988Z,3.85
2022-10-11T11:41:38.780Z,3.77
2022-10-11T11:47:00.780Z,3.12
2022-10-11T11:52:28.358Z,4.10
2022-10-11T11:57:50.999Z,5.07
2022-10-11T12:03:14.713Z,4.75
2022-10-11T12:08:40.733Z,2.84
2022-10-11T12:14:02.098Z,4.79
2022-10-11T12:19:38.534Z,4.22
2022-10-11T12:25:18.827Z,3.17
2022-10-11T12:31:02.621Z,2.77
2022-10-11T12:36:36.421Z,3.97
2022-10-11T12:42:01.511Z,2.76
2022-10-11T12:47:39.198Z,2.89
2022-10-11T12:53:04.071Z,2.26
2022-10-11T12:58:29.155Z,2.98
2022-10-11T13:03:52.188Z,2.10
2022-10-11T13:09:21.440Z,3.62
2022-10-11T13:14:48.385Z,4.40
2022-10-11T13:20:11.786Z,2.64
2022-10-11T13:25:34.920Z,1.36
2022-10-11T13:30:59.776Z,1.17
2022-10-11T13:36:27.323Z,2.12
2022-10-11T13:41:55.104Z,3.03
2022-10-11T13:47:24.780Z,3.42
2022-10-11T13:52:52.376Z,2.96
2022-10-11T13:58:19.155Z,4.18
2022-10-11T14:03:40.453Z,3.19
2022-10-11T14:09:07.782Z,3.55
2022-10-11T14:14:38.672Z,2.63
2022-10-11T14:20:10.161Z,2.99
2022-10-11T14:25:37.899Z,2.57
2022-10-11T14:31:07.101Z,4.38
2022-10-11T14:36:31.071Z,2.34
2022-10-11T14:41:59.549Z,4.15
2022-10-11T14:47:21.825Z,3.24
2022-10-11T14:52:44.882Z,2.35
2022-10-11T14:58:11.077Z,4.61
2022-10-11T15:03:34.261Z,2.62
2022-10-11T15:09:00.948Z,4.25
2022-10-11T15:14:29.024Z,2.27
2022-10-11T15:19:56.953Z,5.24
2022-10-11T15:25:22.853Z,2.77
2022-10-11T15:30:49.032Z,3.19
2022-10-11T15:36:10.653Z,3.39
2022-10-11T15:41:36.539Z,3.36
2022-10-11T15:46:58.322Z,1.33
2022-10-11T15:52:20.315Z,4.32
2022-10-11T15:57:42.543Z,5.66
2022-10-11T16:03:04.003Z,3.18
2022-10-11T16:08:26.151Z,3.24
2022-10-11T16:13:48.632Z,13.21
2022-10-11T16:19:10.586Z,4.19
2022-10-11T16:24:38.078Z,4.79
2022-10-11T16:30:03.554Z,3.07
2022-10-11T16:35:33.026Z,1.75
2022-10-11T16:41:00.078Z,2.63
2022-10-11T16:46:33.069Z,3.71
2022-10-11T16:51:58.709Z,4.20
2022-10-11T16:57:20.670Z,6.04
2022-10-11T17:02:45.907Z,4.61
2022-10-11T17:08:13.217Z,4.05
2022-10-11T17:13:41.393Z,4.92
2022-10-11T17:19:12.166Z,6.11
2022-10-11T17:24:47.997Z,7.78
2022-10-11T17:30:20.575Z,5.12
2022-10-11T17:35:44.674Z,6.61
2022-10-11T17:41:13.673Z,9.25
2022-10-11T17:46:39.865Z,6.39
2022-10-11T17:52:06.550Z,4.38
2022-10-11T17:57:28.542Z,4.17
2022-10-11T18:02:56.553Z,2.91
2022-10-11T18:08:20.671Z,4.54
2022-10-11T18:13:47.326Z,6.74
2022-10-11T18:19:13.601Z,5.12
2022-10-11T18:24:37.496Z,4.15
2022-10-11T18:30:10.164Z,6.01
2022-10-11T18:35:35.119Z,3.82
2022-10-11T18:41:05.312Z,4.72
2022-10-11T18:46:33.661Z,5.89
2022-10-11T18:52:00.503Z,4.51
2022-10-11T18:57:28.999Z,5.94
2022-10-11T19:02:57.281Z,5.29
2022-10-11T19:08:27.239Z,5.03
2022-10-11T19:13:54.184Z,5.57
2022-10-11T19:19:20.786Z,6.32
2022-10-11T19:24:51.419Z,5.09
2022-10-11T19:30:32.683Z,4.35
2022-10-11T19:36:00.301Z,4.09
2022-10-11T19:41:32.860Z,3.62
2022-10-11T19:47:06.316Z,3.42
2022-10-11T19:52:30.891Z,4.30
2022-10-11T19:58:08.157Z,4.72
2022-10-11T20:03:32.789Z,6.56
2022-10-11T20:09:27.929Z,5.85
2022-10-11T20:14:32.703Z,8.27
2022-10-11T20:19:56.842Z,5.10
2022-10-11T20:25:25.666Z,4.44
2022-10-11T20:30:50.827Z,3.49
2022-10-11T20:36:21.741Z,6.13
2022-10-11T20:41:51.530Z,3.74
2022-10-11T20:47:19.504Z,7.98
2022-10-11T20:52:48.547Z,5.95
2022-10-11T20:58:23.229Z,4.25
2022-10-11T21:03:52.154Z,3.15
2022-10-11T21:09:19.562Z,3.36
2022-10-11T21:14:47.840Z,4.46
2022-10-11T21:20:10.556Z,3.79
2022-10-11T21:25:38.184Z,5.00
2022-10-11T21:31:04.716Z,3.59
2022-10-11T21:36:28.351Z,4.23
2022-10-11T21:42:01.792Z,7.09
2022-10-11T21:47:38.873Z,4.30
2022-10-11T21:58:33.464Z,5.18
2022-10-11T22:03:59.196Z,5.36
2022-10-11T22:09:25.874Z,3.99
2022-10-11T22:14:56.031Z,5.35
2022-10-11T22:20:19.234Z,3.39
2022-10-11T22:25:47.222Z,4.41
2022-10-11T22:31:15.246Z,4.00
2022-10-11T22:36:41.852Z,5.40
2022-10-11T22:42:12.912Z,4.15
2022-10-11T22:47:42.037Z,4.84
2022-10-11T22:53:11.252Z,3.71
2022-10-11T22:58:39.554Z,4.58
2022-10-11T23:04:09.744Z,6.48
2022-10-11T23:09:37.992Z,4.44
2022-10-11T23:15:04.138Z,8.59
2022-10-11T23:20:33.610Z,4.38
2022-10-11T23:26:10.740Z,6.55
2022-10-11T23:31:51.818Z,4.48
2022-10-11T23:37:28.910Z,5.63
2022-10-11T23:43:14.304Z,3.47
2022-10-11T23:48:52.842Z,3.45
2022-10-11T23:54:28.740Z,4.74
